CheckWX is a tool to help pilots better visualize weather data.  It is not intended as a substitute for an official pre-flight weather briefing.

20:32:36 UTC

KFME METAR
Tipton Airport
Fort Meade(Odenton), Maryland, USA
Current

30 mins ago

KFME 182003Z AUTO 29018G23KT 10SM BKN065 06/M01 A3010 RMK AO1
Observed
Feb-18 @ 20:03 UTC
Wind
  • 290° at 18 KTS
  • Gusting to 23 KTS
Visibility
10 SM
Flight Rules
VFR
Cloud Levels
  • Broken at 6,500' AGL
Temperature
C / 43°F
Dewpoint
-1°C / 30°F
Humidity
61%
Altimeter
30.1" Hg
Pressure
1019.32 hPa
Previous

51 mins ago

KFME 181942Z AUTO 31016G24KT 10SM CLR 07/M01 A3008 RMK AO1
Observed
Feb-18 @ 19:42 UTC
Wind
  • 310° at 16 KTS
  • Gusting to 24 KTS
Visibility
10 SM
Flight Rules
VFR
Cloud Levels
  • Clear skies
Temperature
C / 45°F
Dewpoint
-1°C / 30°F
Humidity
57%
Altimeter
30.08" Hg
Pressure
1018.62 hPa
Previous

1 hour ago

KFME 181921Z AUTO 31012G22KT 10SM CLR 07/M01 A3007 RMK AO1
Observed
Feb-18 @ 19:21 UTC
Wind
  • 310° at 12 KTS
  • Gusting to 22 KTS
Visibility
10 SM
Flight Rules
VFR
Cloud Levels
  • Clear skies
Temperature
C / 45°F
Dewpoint
-1°C / 30°F
Humidity
57%
Altimeter
30.07" Hg
Pressure
1018.32 hPa